Delta Virtual Airport Information Service

Osaka Kansai International Airport

ICAO: RJBB Country: Japan
Latitude: 34.4273 Longitude: 135.244
Latest Arrival : BAW19 (EGLL-RJBB) Latest Departure : BAW20 (RJBB-EGLL)


WX CaptureLIVE
Data provided by noaa.gov | Fetched at 10:20:03

METAR : RJBB 151500Z AUTO 11004KT 050V130 9999 SCT041 BKN070 BKN120 23/20 Q1005 NOSIG

TAF : RJBB 151330Z 1513/1618 12006KT 9000 -RA FEW015 BKN040 BECMG 1615/1618 06012KT


Runway Data for RJBB
Data provided by openaviationdata.com

Runway ID Mag Var Hdg Length Elevation Surface ILS Freq ILS Id ILS Slope
6 -7 57° 11483 ft 15 ft Asphalt 108.1 IKD 3
24 -7 237° 11483 ft 15 ft Asphalt 110.7 IKN 3

Osaka Kansai International Airport, Japan
Use only for reference purposes



Not for navigational purposes.